METAR Data
IDs: Format: Raw Decoded Include TAF

Data at: 0622 UTC 23 Feb 2019

KF05 230615Z AUTO 09006KT 1/2SM OVC003 08/08 A2979 RMK AO1 T00830083
KF05 230555Z AUTO 11007KT 1/2SM OVC003 08/08 A2981 RMK AO1 T00830082 10094 20032 400940032
KF05 230535Z AUTO 11008KT 1SM OVC003 08/08 A2981 RMK AO1 T00830082
KF05 230515Z AUTO 10009KT 1SM OVC003 09/08 A2982 RMK AO1 T00850083
KF05 230455Z AUTO 10008KT 2 1/2SM OVC003 09/08 A2983 RMK AO1 T00850083
KF05 230435Z AUTO 10007KT 1 3/4SM OVC003 09/08 A2984 RMK AO1 T00850083
KF05 230415Z AUTO 11006KT 1 1/4SM OVC003 09/08 A2987 RMK AO1 T00850083
KF05 230355Z AUTO 11006KT 2 1/2SM OVC003 09/08 A2988 RMK AO1 T00850083
KF05 230335Z AUTO 11007KT 2 1/2SM OVC003 09/08 A2988 RMK AO1 T00850084
KF05 230315Z AUTO 10006KT 2 1/2SM OVC003 09/09 A2989 RMK AO1 T00850085
KF05 230255Z AUTO 10003KT 2 1/2SM OVC003 09/09 A2990 RMK AO1 T00850085
KF05 230235Z AUTO 10004KT 2SM OVC003 09/09 A2989 RMK AO1 T00850085
KF05 230215Z AUTO 11006KT 2SM OVC003 09/09 A2989 RMK AO1 T00850085
KF05 230155Z AUTO 10005KT 1 3/4SM OVC003 09/09 A2989 RMK AO1 T00850085
KF05 230135Z AUTO 10004KT 2 1/2SM OVC003 09/09 A2988 RMK AO1 T00850085
KF05 230115Z AUTO 10004KT 2 1/2SM OVC003 09/09 A2988 RMK AO1 T00850085
KF05 230055Z AUTO 11004KT 2 1/2SM OVC003 09/08 A2988 RMK AO1 T00850084
KF05 230035Z AUTO 10005KT 2SM OVC003 09/09 A2988 RMK AO1 T00860085
KF05 230015Z AUTO 10006KT 2 1/2SM OVC003 09/09 A2989 RMK AO1 T00870085
KF05 222355Z AUTO 10006KT 1 1/2SM OVC003 09/09 A2989 RMK AO1 T00870085 10094 20032
KF05 222335Z AUTO 10007KT 1 1/4SM OVC003 09/09 A2990 RMK AO1 T00870085
KF05 222315Z AUTO 09006KT 1 3/4SM OVC003 09/09 A2991 RMK AO1 T00880085
KF05 222255Z AUTO 11006KT 5SM OVC005 09/08 A2991 RMK AO1 T00890083
KF05 222235Z AUTO 10007KT 7SM OVC005 09/08 A2992 RMK AO1 T00900084
KF05 222215Z AUTO 11006KT 7SM OVC007 09/08 A2992 RMK AO1 T00900084
KF05 222155Z AUTO 12005KT 5SM OVC007 09/09 A2992 RMK AO1 T00890085
KF05 222135Z AUTO 11005KT 2 1/2SM OVC007 09/08 A2992 RMK AO1 T00880084
KF05 222115Z AUTO 12005KT 2 1/2SM OVC005 09/08 A2992 RMK AO1 T00870083
KF05 222055Z AUTO 11006KT 2SM OVC005 09/08 A2993 RMK AO1 T00850081
KF05 222035Z AUTO 12006KT 1 3/4SM OVC005 09/08 A2993 RMK AO1 T00860080
KF05 222015Z AUTO 11007KT 2 1/2SM OVC005 09/08 A2993 RMK AO1 T00860079
KF05 221955Z AUTO 12006KT 10SM OVC005 09/08 A2994 RMK AO1 T00850077
KF05 221935Z AUTO 12006KT 10SM OVC005 09/08 A2995 RMK AO1 T00850077
KF05 221915Z AUTO 11006KT 10SM OVC003 08/08 A2996 RMK AO1 T00820075
KF05 221855Z AUTO 09006KT 7SM OVC003 08/08 A2997 RMK AO1 T00830077
KF05 221835Z AUTO 11006KT 10SM OVC003 08/08 A2998 RMK AO1 T00810076
KF05 221815Z AUTO 10007KT 7SM OVC003 08/08 A2999 RMK AO1 T00810076
KF05 221755Z AUTO 10007KT 10SM OVC003 08/08 A3000 RMK AO1 60001 T00800076 10094 20032
KF05 221735Z AUTO 11007KT 10SM OVC003 08/07 A3000 RMK AO1 T00770074
KF05 221715Z AUTO 10008KT 7SM OVC003 08/07 A3001 RMK AO1 T00760073
KF05 221655Z AUTO 10007KT 7SM OVC003 07/07 A3001 RMK AO1 T00740071
KF05 221635Z AUTO 11007KT 10SM OVC003 07/07 A3003 RMK AO1 T00730070
KF05 221615Z AUTO 10009KT 10SM OVC003 07/07 A3003 RMK AO1 T00720070
KF05 221555Z AUTO 10010KT 10SM OVC003 07/07 A3003 RMK AO1 T00700068
KF05 221535Z AUTO 10010KT 10SM OVC003 07/07 A3004 RMK AO1 T00680066
KF05 221515Z AUTO 09010KT 10SM OVC003 07/07 A3004 RMK AO1 T00670065
KF05 221455Z AUTO 09009KT 10SM OVC003 07/06 A3004 RMK AO1 P0001 60001 T00650064
KF05 221435Z AUTO 09006KT 4SM OVC003 06/06 A3004 RMK AO1 P0001 T00640062
KF05 221415Z AUTO 08005KT 3SM OVC003 06/06 A3003 RMK AO1 P0001 T00620060
KF05 221355Z AUTO 07006KT 2SM OVC003 06/06 A3004 RMK AO1 T00620060
KF05 221335Z AUTO 11005KT 1 3/4SM OVC003 06/06 A3004 RMK AO1 T00610060
KF05 221315Z AUTO 09004KT 2SM OVC003 06/06 A3003 RMK AO1 T00610060
KF05 221255Z AUTO 08004KT 1 1/2SM OVC003 06/06 A3003 RMK AO1 T00600058
KF05 221235Z AUTO 08003KT 1 3/4SM OVC003 06/06 A3003 RMK AO1 T00600057
KF05 221215Z AUTO 07005KT 1 3/4SM OVC003 06/06 A3002 RMK AO1 T00600056
KF05 221155Z AUTO 07008KT 1 3/4SM OVC003 06/06 A2999 RMK AO1 7//// T00580055 10094 20032
KF05 221135Z AUTO 06006KT 2SM OVC003 06/05 A2999 RMK AO1 T00570053
KF05 221115Z AUTO 06006KT 2 1/2SM OVC003 06/05 A2998 RMK AO1 T00570051
KF05 221055Z AUTO 07007KT 3SM OVC005 06/05 A2998 RMK AO1 T00570050
KF05 221035Z AUTO 07007KT 4SM OVC007 06/05 A2998 RMK AO1 T00580050
KF05 221015Z AUTO 09007KT 7SM OVC007 06/05 A2999 RMK AO1 T00570048
KF05 220955Z AUTO 07007KT 10SM OVC009 05/05 A2997 RMK AO1 T00530045
KF05 220935Z AUTO 06005KT 10SM OVC011 05/04 A2998 RMK AO1 T00470040
KF05 220915Z AUTO 06005KT 10SM OVC013 04/04 A2998 RMK AO1 T00430036
KF05 220855Z AUTO 06006KT 10SM OVC013 04/04 A2997 RMK AO1 T00400035
KF05 220835Z AUTO 07006KT 10SM OVC013 04/03 A2998 RMK AO1 T00380031
KF05 220815Z AUTO 07005KT 10SM OVC015 04/03 A2999 RMK AO1 T00360030
KF05 220755Z AUTO 06004KT 10SM BKN017 04/03 A3000 RMK AO1 T00370030
KF05 220735Z AUTO 10005KT 10SM BKN021 04/03 A3000 RMK AO1 T00370030
KF05 220715Z AUTO 10006KT 10SM BKN021 04/03 A3000 RMK AO1 T00370030
KF05 220655Z AUTO 10007KT 10SM CLR 04/03 A2999 RMK AO1 T00370030
KF05 220635Z AUTO 09007KT 10SM CLR 04/03 A2998 RMK AO1 T00380030
KF05 220615Z AUTO 09006KT 10SM CLR 04/03 A2999 RMK AO1 T00390030
KF05 220555Z AUTO 08005KT 10SM CLR 04/03 A2999 RMK AO1 T00400030 10094 20032
KF05 220535Z AUTO 10007KT 10SM CLR 04/03 A2999 RMK AO1 T00390028
KF05 220515Z AUTO 10007KT 10SM CLR 04/02 A3000 RMK AO1 T00360023
KF05 220455Z AUTO 09007KT 10SM CLR 03/02 A3000 RMK AO1 T00320015
KF05 220435Z AUTO 08005KT 10SM CLR 04/02 A3001 RMK AO1 T00420019
KF05 220415Z AUTO 09007KT 10SM CLR 05/02 A3000 RMK AO1 T00480021
KF05 220355Z AUTO 09007KT 10SM CLR 05/02 A3001 RMK AO1 T00470015
KF05 220335Z AUTO 09007KT 10SM CLR 05/02 A3001 RMK AO1 T00520015
KF05 220315Z AUTO 09006KT 10SM CLR 05/01 A3000 RMK AO1 T00530011
KF05 220255Z AUTO 10006KT 10SM CLR 06/01 A3000 RMK AO1 T00550007
KF05 220235Z AUTO 09006KT 10SM CLR 06/01 A2999 RMK AO1 T00640007
KF05 220215Z AUTO 09007KT 10SM CLR 07/01 A2998 RMK AO1 T00700007
KF05 220155Z AUTO 11008KT 10SM CLR 07/00 A2997 RMK AO1 T00681003
KF05 220135Z AUTO 10006KT 10SM CLR 07/M01 A2996 RMK AO1 T00741006
KF05 220115Z AUTO 12007KT 10SM CLR 09/M01 A2995 RMK AO1 T00861007
KF05 220055Z AUTO 12008KT 10SM CLR 09/M01 A2994 RMK AO1 T00931014
KF05 220035Z AUTO 12008KT A2993 RMK AO1
KF05 220015Z AUTO 12011KT 10SM CLR 11/M02 A2991 RMK AO1 T01111024
KF05 212355Z AUTO 12013KT 10SM CLR 12/M03 A2991 RMK AO1 T01181030 10256 21042
KF05 212335Z AUTO 14016KT 10SM CLR 12/M03 A2991 RMK AO1 T01241031
KF05 212315Z AUTO 14017KT 10SM CLR 13/M02 A2991 RMK AO1 T01281023
KF05 212255Z AUTO 13013G18KT 10SM CLR 13/M02 A2991 RMK AO1 T01291021
KF05 212235Z AUTO 14014KT 10SM SCT060 13/M02 A2992 RMK AO1 T01271020
KF05 212215Z AUTO 14017KT 10SM SCT070 13/M02 A2992 RMK AO1 T01251018
KF05 212155Z AUTO 14015KT 10SM BKN070 12/M01 A2993 RMK AO1 T01241009
KF05 212135Z AUTO 14015G19KT 10SM BKN070 13/00 A2993 RMK AO1 T01260002
KF05 212115Z AUTO 14015G19KT 10SM OVC070 13/01 A2993 RMK AO1 T01260007
KF05 212055Z AUTO 14016G20KT 10SM OVC070 13/01 A2994 RMK AO1 T01270006
KF05 212035Z AUTO 13017KT 10SM BKN070 13/00 A2994 RMK AO1 T01320000
KF05 212015Z AUTO 13020G27KT 10SM SCT070 SCT085 14/M01 A2992 RMK AO1 T01371011
KF05 211955Z AUTO 14020G25KT 10SM BKN070 OVC085 13/M02 A2992 RMK AO1 T01311017
KF05 211935Z AUTO 14021G24KT 10SM OVC080 13/M01 A2994 RMK AO1 T01341010
KF05 211915Z AUTO 14017G22KT 10SM OVC080 14/M01 A2995 RMK AO1 T01351009
KF05 211855Z AUTO 14018G25KT 10SM SCT080 13/M01 A2997 RMK AO1 T01331007
KF05 211835Z AUTO 14022G28KT 10SM SCT085 13/M01 A2996 RMK AO1 T01311008